<?xml version="1.0" encoding="UTF-8" standalone="no" ?>
<gpx xmlns="http://www.topografix.com/GPX/1/1" xmlns:xsi="http://www.w3.org/2001/XMLSchema-instance" xsi:schemaLocation="http://www.topografix.com/GPX/1/1 http://www.topografix.com/GPX/1/1/gpx.xsd" version="1.1" creator="VisuGPX - https://www.visugpx.com">
  <metadata>
    <name>Gare maritime - Eglise</name>
  </metadata>
  <wpt lat="47.74167" lon="-3.35344">
    <ele>4</ele>
    <name><![CDATA[Point de passage 1]]></name>
    <type><![CDATA[GENERIC]]></type>
  </wpt>
  <wpt lat="47.75643" lon="-3.36749">
    <ele>23</ele>
    <name><![CDATA[Point de passage 2]]></name>
    <type><![CDATA[GENERIC]]></type>
  </wpt>
  <trk>
    <name><![CDATA[Gare maritime - Eglise]]></name>
    <trkseg>
      <trkpt lat="47.74167" lon="-3.35344">
        <ele>4</ele>
        <time>2025-07-14T15:26:51.000Z</time>
      </trkpt>
      <trkpt lat="47.74232" lon="-3.35235">
        <ele>3</ele>
        <time>2025-07-14T15:28:43.000Z</time>
      </trkpt>
      <trkpt lat="47.74306" lon="-3.35671">
        <ele>4</ele>
        <time>2025-07-14T15:34:40.000Z</time>
      </trkpt>
      <trkpt lat="47.74333" lon="-3.35748">
        <ele>4</ele>
        <time>2025-07-14T15:35:47.000Z</time>
      </trkpt>
      <trkpt lat="47.74394" lon="-3.35926">
        <ele>4</ele>
        <time>2025-07-14T15:38:21.000Z</time>
      </trkpt>
      <trkpt lat="47.7443" lon="-3.35972">
        <ele>4</ele>
        <time>2025-07-14T15:39:15.000Z</time>
      </trkpt>
      <trkpt lat="47.74508" lon="-3.35893">
        <ele>4</ele>
        <time>2025-07-14T15:41:04.000Z</time>
      </trkpt>
      <trkpt lat="47.74753" lon="-3.36526">
        <ele>5</ele>
        <time>2025-07-14T15:50:37.000Z</time>
      </trkpt>
      <trkpt lat="47.74782" lon="-3.36539">
        <ele>5</ele>
        <time>2025-07-14T15:51:11.000Z</time>
      </trkpt>
      <trkpt lat="47.74789" lon="-3.36459">
        <ele>6</ele>
        <time>2025-07-14T15:52:24.000Z</time>
      </trkpt>
      <trkpt lat="47.74815" lon="-3.36406">
        <ele>7</ele>
        <time>2025-07-14T15:53:25.000Z</time>
      </trkpt>
      <trkpt lat="47.74852" lon="-3.36439">
        <ele>8</ele>
        <time>2025-07-14T15:54:25.000Z</time>
      </trkpt>
      <trkpt lat="47.75045" lon="-3.36318">
        <ele>13</ele>
        <time>2025-07-14T15:59:16.000Z</time>
      </trkpt>
      <trkpt lat="47.75013" lon="-3.36199">
        <ele>12</ele>
        <time>2025-07-14T16:00:55.000Z</time>
      </trkpt>
      <trkpt lat="47.75278" lon="-3.36172">
        <ele>12</ele>
        <time>2025-07-14T16:05:59.000Z</time>
      </trkpt>
      <trkpt lat="47.75374" lon="-3.36219">
        <ele>12</ele>
        <time>2025-07-14T16:07:55.000Z</time>
      </trkpt>
      <trkpt lat="47.75444" lon="-3.36281">
        <ele>13</ele>
        <time>2025-07-14T16:09:38.000Z</time>
      </trkpt>
      <trkpt lat="47.75553" lon="-3.36354">
        <ele>15</ele>
        <time>2025-07-14T16:12:16.000Z</time>
      </trkpt>
      <trkpt lat="47.75596" lon="-3.36396">
        <ele>16</ele>
        <time>2025-07-14T16:13:25.000Z</time>
      </trkpt>
      <trkpt lat="47.75663" lon="-3.36455">
        <ele>17</ele>
        <time>2025-07-14T16:15:04.000Z</time>
      </trkpt>
      <trkpt lat="47.75626" lon="-3.36656">
        <ele>22</ele>
        <time>2025-07-14T16:18:36.000Z</time>
      </trkpt>
      <trkpt lat="47.75649" lon="-3.36671">
        <ele>22</ele>
        <time>2025-07-14T16:19:06.000Z</time>
      </trkpt>
      <trkpt lat="47.75643" lon="-3.36749">
        <ele>23</ele>
        <time>2025-07-14T16:20:16.000Z</time>
      </trkpt>
    </trkseg>
  </trk>
</gpx>